Aérodrome de Montendre-Marcillac

LFDC · 滨海夏朗德省, Nouvelle-Aquitaine, 法国

罗盘
风向 的 风向 110° Montendre Marcillac Airport 15/33
风: 6 kt, 2 beaufort

4 kt

4 kt
改变
0 1.000 2.000 3.000 4.000 5.000
CAVOK
METAR LFBG 261830Z AUTO 11006KT CAVOK 08/07 Q1026

METAR Montendre Marcillac Airport - LFDC

Montendre Marcillac Airport是,法国中的小机场。 该机场有一条跑道: 15/33. 该领域的国际民航组织标志是LFDC.

这份报告是针对2022年11月26日 19:30, 当地时间在Cognac-Châteaubernard (BA 709) Air Base进行的。

机场观察

风向为110°,速度为6 kt。

天气为CAVOK。这意味着在5.000 ft或MSA(最低安全高度)以下(以较高者为准)以下没有云。这也意味着没有观测到积雨云或高耸的积云,可见度为10 km 或者更多或更高。此外,不会有雾,降雨或其他重要天气。

温度为8 °C,阵风为4 °C。 露点为7 °C,相对湿度为93%。 海平面上的气压为1026 hPa (QNH)。

白天

今天,太阳从08:14升起,在17:23降落。 这适用于Montendre Marcillac Airport,世界夏令时可能有所不同。 当地时间与世界标准时间之间的时差为+1 小时。 当前,没有夏令时有效。

公司介绍

在这个机场,你可以找到飞行俱乐部。 本场上唯一已知的公司是Aéroclub Marcillac - Estuaire。

体会

到Vliegles.nl去找飞行课程,跳伞和其他飞行体验。 浏览页面,了解Montendre Marcillac Airport附近所有可用的活动。 你也可以使用搜索功能来寻找你所在地附近的特定飞行课程、跳伞或其他飞行体验。

跑道

Id 标题 侧风 逆风 侧风 %
15/33 153°-333° 4 kt 4 kt 68 %

逆风成分最大的方向会被突出显示,并用于横风计算。 这并不一定意味着这个方向在使用。

温度 & 天气

温度 8 °C
露点 7 °C
相对湿度 93%
风寒 4 °C
Kp-index 0 (0-9)

白天

日出
08:15 (12:37)
中午
12:48
日落
17:21

小工具

你想在你的网站上有一个关于Montendre Marcillac Airport的当前航空天气(METAR)的小部件吗?

显示HTML代码

我们和第三方通过cookies跟踪您在我们网站上的互联网行为。如果你继续,我们认为你同意我们的饼干政策